Ashburn, Georgia
Current Conditions -  °F | °C
As of 3:15 AM on Thursday 29 Jan 2015 (Local Time) from KCKF Reporting Station
Clear Clear  
Wind Chill: 35°   Ceiling: Unl
Heat Index: 39°   Visibility: 10mi
Dew Point: 30°   Wind: 6mph
Humidity: 71%   Direction: 140°SE
Pressure: 30.3"   Gusts: NA
Location:  31.71°N, 83.65°W
Report Text: KCKF 290815Z AUTO 14005KT 10SM CLR 04/M01 A3030 RMK AO2 T00391009
Loading
Personal Weather Stations






























Interactive Weather Map New forecast layout! Learn more

10-Day Weather Forecast

Advertisements
Track Severe Weather on mobile